createdAt,value
2022-07-27T00:10:19.743Z,67
2022-07-27T00:24:46.111Z,65.6
2022-07-27T00:39:14.529Z,64.6
2022-07-27T00:53:41.075Z,64.5
2022-07-27T01:08:09.402Z,64.2
2022-07-27T01:22:37.105Z,64.6
2022-07-27T01:37:04.494Z,63.9
2022-07-27T01:51:31.771Z,63.5
2022-07-27T02:06:00.210Z,63.5
2022-07-27T02:20:27.900Z,65
2022-07-27T02:34:52.921Z,66.5
2022-07-27T02:49:21.135Z,66.4
2022-07-27T03:03:47.677Z,67.3
2022-07-27T03:18:16.568Z,67
2022-07-27T03:32:44.100Z,68.6
2022-07-27T03:47:12.278Z,70.4
2022-07-27T04:01:39.931Z,72
2022-07-27T04:16:07.063Z,72.9
2022-07-27T04:30:35.722Z,72
2022-07-27T04:45:04.105Z,73
2022-07-27T04:59:32.530Z,73.7
2022-07-27T05:14:00.775Z,73.8
2022-07-27T05:28:34.628Z,75.2
2022-07-27T05:43:12.274Z,75.1
2022-07-27T05:57:32.779Z,73.3
2022-07-27T06:12:01.133Z,69.6
2022-07-27T06:26:29.685Z,71
2022-07-27T06:40:58.517Z,69.4
2022-07-27T06:55:27.254Z,66.9
2022-07-27T07:09:55.923Z,64.5
2022-07-27T07:24:25.117Z,62.4
2022-07-27T07:39:02.496Z,49.2
2022-07-27T07:53:41.981Z,52.9
2022-07-27T08:07:58.025Z,54.8
2022-07-27T08:22:34.338Z,51.9
2022-07-27T08:37:15.978Z,40.2
2022-07-27T08:51:46.902Z,42.3
2022-07-27T09:06:08.665Z,44.9
2022-07-27T09:20:31.945Z,46.8
2022-07-27T09:34:57.788Z,45.6
2022-07-27T09:49:25.781Z,47.1
2022-07-27T10:03:56.937Z,43.3
2022-07-27T10:18:25.848Z,46
2022-07-27T10:32:51.965Z,42.2
2022-07-27T10:47:21.860Z,43.2
2022-07-27T11:01:52.429Z,40.5
2022-07-27T11:16:25.892Z,42.7
2022-07-27T11:30:47.609Z,41.5
2022-07-27T11:45:19.003Z,38.9
2022-07-27T11:59:42.884Z,43
2022-07-27T12:14:12.464Z,41.6
2022-07-27T12:28:41.728Z,41
2022-07-27T12:43:03.721Z,41.1
2022-07-27T12:57:56.633Z,38.6
2022-07-27T13:12:12.624Z,39.5
2022-07-27T13:26:37.470Z,38.1
2022-07-27T13:41:01.370Z,38.5
2022-07-27T13:55:34.337Z,39.4
2022-07-27T14:10:02.976Z,38.8
2022-07-27T14:24:29.262Z,38.4
2022-07-27T14:38:55.566Z,39.5
2022-07-27T14:53:22.175Z,38
2022-07-27T15:07:49.210Z,38
2022-07-27T15:22:16.637Z,37.8
2022-07-27T15:36:51.998Z,38.3
2022-07-27T15:51:14.342Z,37.9
2022-07-27T16:05:46.759Z,39.6
2022-07-27T16:20:16.491Z,38.5
2022-07-27T16:34:41.020Z,38.4
2022-07-27T16:49:09.337Z,36.9
2022-07-27T17:03:37.291Z,38.9
2022-07-27T17:18:02.123Z,40.7
2022-07-27T17:32:30.285Z,39.2
2022-07-27T17:47:01.311Z,38.7
2022-07-27T18:01:48.603Z,40.7
2022-07-27T18:16:03.807Z,42.6
2022-07-27T18:30:30.044Z,42.7
2022-07-27T18:44:56.554Z,45.4
2022-07-27T18:59:22.630Z,46.9
2022-07-27T19:13:49.162Z,47
2022-07-27T19:28:16.100Z,49.7
2022-07-27T19:42:43.262Z,49.4
2022-07-27T19:57:10.003Z,49.5
2022-07-27T20:11:37.359Z,50.7
2022-07-27T20:26:04.404Z,53.5
2022-07-27T20:40:31.960Z,54.1
2022-07-27T20:54:59.643Z,55.8
2022-07-27T21:09:28.734Z,55.5
2022-07-27T21:23:56.080Z,58.7
2022-07-27T21:38:24.008Z,58.3
2022-07-27T21:52:51.012Z,60
2022-07-27T22:07:19.748Z,61.7
2022-07-27T22:21:45.112Z,62.4
2022-07-27T22:36:12.740Z,62.7
2022-07-27T22:50:39.926Z,63.9
2022-07-27T23:05:07.051Z,64.3
2022-07-27T23:19:34.327Z,66
2022-07-27T23:34:01.911Z,66.3
2022-07-27T23:48:29.917Z,65.9
